Sun Prairie, WI (53590)

8:14 AM CDT on March 30, 2017 (GMT -0500)
Charlotte's Walk | | Change Station

Elev 961 ft 43.19 °N, 89.27 °W | Updated 14 seconds ago

Rain
Rain
36.6 °F
Feels Like 32 °F
N
6.0
Wind Variable Wind from NE
Gusts 12.0 mph

Today
High -- | Low -- °F
--% Chance of Precip.
Yesterday
High -- | Low -- °F
Precip. -- in
Pressure 29.88 in
Visibility 8.0 miles
Clouds Overcast 900 ft
Windchill 32 °F
Dew Point 37 °F
Humidity 100%
Rainfall 0.20 in
Snow Depth Not available.
6:41 AM 7:21 PM
Waxing Crescent, 8% visible
METAR KMSN 301253Z 08012KT 8SM -RA OVC009 03/02 A2986 RMK AO2 CIG 008V012 SLP117 P0000 T00280017
Pressure 29.88 in
Visibility 8.0 miles
Clouds Overcast 900 ft
Windchill 32 °F
Dew Point 37 °F
Humidity 100%
Rainfall 0.20 in
Snow Depth Not available.
6:41 AM 7:21 PM
Waxing Crescent, 8% visible
METAR KMSN 301253Z 08012KT 8SM -RA OVC009 03/02 A2986 RMK AO2 CIG 008V012 SLP117 P0000 T00280017

Get Severe Weather Alerts

Thanks for signing up!

Be on the lookout for a verification email in your inbox.

You'll start receiving the daily forecast at 8 AM.

×

10-Day Weather Forecast

Almanac

Astronomy

Mar. 30, 2017 Rise Set
Actual Time
Civil Twilight
Nautical Twilight
Astronomical Twilight
Moon
Length of Visible Light
Length of Day
Tomorrow will be .
, % of the Moon is Illuminated

Today's Extremes

State Highs State Lows

Community

WunderPhotos

Upload Photos

1,962,540 photos uploaded!

WunderBlog® & News

Nearby

Air Quality

  Air Quality AQ Index Pollutant
Not available.

Snow Depth

Station Depth Elevation

Earthquake Activity

City Distance Mag. Time & Date
Minimum magnitude displayed is 2.5.

Earthquake Activity

City Distance Mag. Time & Date
Minimum magnitude displayed is 2.5.

Coastal Water Temperatures

Place Temperature

Stations

Nearby Weather Stations

Station Location Temp. Windchill Dew Point Humidity Wind Precip. Elev Updated Type
                   

Watches & Warnings

There are currently no watches in effect.